Data for 05/21/2005

Time Sea-Level Adjusted Pressure Absolute Pressure Temperature Relative Humidity Dew Point   
(mb) (inHg) (mb) (inHg) (C) (F) (%) (C) (F)
00:05 1017 30.03 846 24.98 8.9 47.9 88 7 44.6
00:10 1017 30.03 846 24.98 8.6 47.5 88 6.7 44.1
00:15 1017 30.03 846 24.98 8.5 47.2 88 6.7 44
00:20 1017 30.03 846 24.98 8.2 46.8 90 6.7 44
00:25 1017 30.03 846 24.98 8 46.4 89 6.4 43.5
00:30 1017 30.03 846 24.98 8 46.3 91 6.5 43.8
00:35 1017 30.03 846 24.98 8 46.4 89 6.4 43.5
00:40 1017 30.03 846 24.98 8 46.4 90 6.4 43.6
00:45 1017 30.03 846 24.98 7.9 46.2 88 6.1 42.9
00:50 1017 30.03 846 24.98 8 46.4 88 6.2 43.1
00:55 1017 30.03 846 24.98 8.2 46.8 86 6.1 42.9
01:00 1017 30.03 846 24.98 8.2 46.7 88 6.3 43.4
01:05 1017 30.03 846 24.98 8.2 46.8 88 6.4 43.4
01:10 1017 30.03 846 24.98 8.3 46.9 88 6.4 43.5
01:15 1017 30.03 846 24.98 8.4 47.1 89 6.7 44.1
01:20 1017 30.03 846 24.98 8.3 46.9 90 6.7 44
01:25 1017 30.03 846 24.98 8.3 46.9 89 6.5 43.8
01:30 1017 30.03 846 24.98 8.2 46.8 90 6.7 44
01:35 1017 30.03 846 24.98 8.1 46.5 91 6.6 43.9
01:40 1017 30.03 846 24.98 8 46.4 91 6.6 43.9
01:45 1017 30.03 846 24.98 8 46.4 91 6.7 44
01:50 1017 30.03 846 24.98 8.1 46.6 91 6.7 44.1
01:55 1017 30.03 846 24.98 8.2 46.7 90 6.6 43.9
02:00 1017 30.03 846 24.98 8 46.3 90 6.4 43.4
02:05 1017 30.03 846 24.98 7.8 46.1 89 6.2 43.1
02:10 1017 30.03 846 24.98 7.7 45.9 89 6.1 42.9
02:15 1017 30.03 846 24.98 7.8 46 89 6 42.9
02:20 1017 30.03 847 25.01 8 46.4 89 6.3 43.3
02:25 1017 30.03 847 25.01 8.1 46.6 87 6.1 43
02:30 1017 30.03 847 25.01 8.2 46.7 88 6.3 43.4
02:35 1017 30.03 847 25.01 8.1 46.6 88 6.3 43.3
02:40 1017 30.03 847 25.01 8.2 46.7 87 6.1 43
02:45 1017 30.03 847 25.01 8.4 47 87 6.3 43.3
02:50 1017 30.03 847 25.01 8.5 47.3 86 6.3 43.3
02:55 1018 30.06 847 25.01 8.4 47.2 87 6.5 43.7
03:00 1018 30.06 847 25.01 8.3 46.9 88 6.5 43.6
03:05 1018 30.06 847 25.01 8.2 46.8 89 6.6 43.8
03:10 1018 30.06 847 25.01 8 46.5 91 6.6 44
03:15 1018 30.06 847 25.01 7.9 46.1 91 6.5 43.6
03:20 1018 30.06 847 25.01 7.8 46.1 89 6.1 42.9
03:25 1018 30.06 847 25.01 7.8 46 86 5.6 42
03:30 1018 30.06 847 25.01 7.8 46 85 5.4 41.6
03:35 1018 30.06 847 25.01 7.6 45.7 85 5.2 41.4
03:40 1018 30.06 847 25.01 7.6 45.6 86 5.3 41.5
03:45 1018 30.06 847 25.01 7.5 45.4 85 5.2 41.3
03:50 1018 30.06 847 25.01 7.6 45.6 84 5 41
03:55 1018 30.06 847 25.01 7.7 45.9 82 4.9 40.9
04:00 1018 30.06 847 25.01 7.8 46.1 81 4.8 40.6
04:05 1018 30.06 848 25.04 8 46.3 79 4.6 40.3
04:10 1018 30.06 848 25.04 8 46.5 80 4.7 40.5
04:15 1019 30.09 848 25.04 8 46.4 83 5.3 41.5
04:20 1019 30.09 848 25.04 8 46.3 83 5.3 41.5
04:25 1019 30.09 848 25.04 7.9 46.2 86 5.7 42.2
04:30 1019 30.09 848 25.04 7.8 46 84 5.3 41.5
04:35 1019 30.09 848 25.04 7.7 45.8 84 5.1 41.2
04:40 1019 30.09 848 25.04 7.6 45.7 82 4.8 40.6
04:45 1019 30.09 848 25.04 7.6 45.6 81 4.5 40.2
04:50 1019 30.09 848 25.04 7.5 45.4 82 4.6 40.3
04:55 1019 30.09 848 25.04 7.4 45.2 81 4.4 39.9
05:00 1019 30.09 848 25.04 7.3 45.2 79 4 39.1
05:05 1019 30.09 848 25.04 7.3 45.2 80 4.2 39.5
05:10 1019 30.09 848 25.04 7.3 45.1 81 4.2 39.5
05:15 1019 30.09 848 25.04 7.3 45.2 82 4.5 40
05:20 1019 30.09 848 25.04 7.2 45 83 4.5 40
05:25 1019 30.09 848 25.04 7.1 44.8 82 4.3 39.7
05:30 1019 30.09 848 25.04 7.1 44.8 83 4.4 39.9
05:35 1019 30.09 849 25.07 7 44.6 82 4.1 39.4
05:40 1019 30.09 849 25.07 7.1 44.7 82 4.2 39.6
05:45 1020 30.12 849 25.07 7.1 44.8 83 4.4 39.9
05:50 1020 30.12 849 25.07 6.9 44.5 85 4.5 40.2
05:55 1020 30.12 849 25.07 6.8 44.3 84 4.3 39.8
06:00 1020 30.12 849 25.07 6.9 44.4 83 4.3 39.7
06:05 1020 30.12 849 25.07 6.9 44.5 83 4.2 39.6
06:10 1020 30.12 849 25.07 7 44.5 79 3.6 38.5
06:15 1020 30.12 849 25.07 7.1 44.7 79 3.6 38.5
06:20 1020 30.12 849 25.07 7 44.7 79 3.7 38.6
06:25 1020 30.12 849 25.07 7.1 44.7 78 3.6 38.4
06:30 1020 30.12 849 25.07 7.1 44.7 79 3.7 38.6
06:35 1020 30.12 849 25.07 7 44.5 80 3.8 38.8
06:40 1020 30.12 849 25.07 6.9 44.5 80 3.7 38.6
06:45 1020 30.12 850 25.1 6.8 44.3 80 3.6 38.4
06:50 1021 30.15 850 25.1 6.8 44.3 79 3.4 38.1
06:55 1021 30.15 850 25.1 6.9 44.3 77 3.2 37.7
07:00 1021 30.15 850 25.1 6.9 44.5 77 3.3 37.9
07:05 1021 30.15 850 25.1 7.1 44.7 78 3.4 38.1
07:10 1021 30.15 850 25.1 7.1 44.7 76 3.2 37.7
07:15 1021 30.15 850 25.1 7.1 44.8 75 3 37.4
07:20 1021 30.15 850 25.1 7.1 44.8 72 2.5 36.4
07:25 1021 30.15 850 25.1 7.2 44.9 71 2.2 36
07:30 1021 30.15 850 25.1 7.2 45 70 2.1 35.7
07:35 1021 30.15 850 25.1 7.2 44.9 72 2.5 36.6
07:40 1021 30.15 850 25.1 7.2 44.9 71 2.3 36.2
07:45 1021 30.15 850 25.1 7.2 44.9 69 1.9 35.4
07:50 1021 30.15 850 25.1 7.2 44.9 70 2.1 35.7
07:55 1021 30.15 850 25.1 7.2 44.9 70 2 35.6
08:00 1021 30.15 850 25.1 7.1 44.8 71 2.2 35.9
08:05 1021 30.15 850 25.1 7.1 44.8 70 2 35.7
08:10 1021 30.15 850 25.1 7.3 45.1 70 2.1 35.8
08:15 1021 30.15 850 25.1 7.4 45.2 70 2.4 36.2
08:20 1021 30.15 851 25.13 7.5 45.5 72 2.7 36.9
08:25 1021 30.15 851 25.13 7.6 45.6 68 2.1 35.7
08:30 1022 30.18 851 25.13 7.7 45.9 67 2.1 35.7
08:35 1022 30.18 851 25.13 7.7 45.9 66 1.8 35.2
08:40 1022 30.18 851 25.13 7.8 46 66 1.9 35.4
08:45 1022 30.18 851 25.13 7.9 46.1 66 1.8 35.3
08:50 1022 30.18 851 25.13 7.9 46.2 65 1.7 35
08:55 1022 30.18 851 25.13 8 46.5 65 1.9 35.4
09:00 1022 30.18 851 25.13 8.1 46.5 65 1.9 35.5
09:05 1022 30.18 851 25.13 8.1 46.6 64 1.8 35.2
09:10 1022 30.18 851 25.13 8.3 46.9 66 2.4 36.4
09:15 1022 30.18 851 25.13 8.5 47.2 65 2.4 36.3
09:20 1022 30.18 851 25.13 8.9 48 62 2 35.6
09:25 1022 30.18 851 25.13 9.7 49.4 59 2.2 35.9
09:30 1022 30.18 851 25.13 9.8 49.7 61 2.8 37
09:35 1022 30.18 851 25.13 9.6 49.2 60 2.3 36.2
09:40 1022 30.18 851 25.13 9.7 49.4 59 2.1 35.7
09:45 1022 30.18 851 25.13 9.7 49.4 58 1.8 35.2
09:50 1022 30.18 851 25.13 10.5 50.9 57 2.3 36.1
09:55 1022 30.18 851 25.13 11.6 52.8 52 2.1 35.7
10:00 1022 30.18 851 25.13 11.7 53 49 1.4 34.5
10:05 1022 30.18 851 25.13 12 53.6 49 1.6 34.8
10:10 1022 30.18 851 25.13 11.9 53.4 49 1.5 34.7
10:15 1022 30.18 851 25.13 12.1 53.8 48 1.5 34.7
10:20 1022 30.18 851 25.13 12.3 54.1 46 1.2 34.1
10:25 1022 30.18 851 25.13 12.4 54.3 46 1.2 34.1
10:30 1022 30.18 851 25.13 12.4 54.2 46 1 33.9
10:35 1022 30.18 851 25.13 12.2 54 47 1.3 34.3
10:40 1022 30.18 851 25.13 11.7 53 47 0.7 33.2
10:45 1022 30.18 851 25.13 11.4 52.5 46 0.3 32.5
10:50 1022 30.18 851 25.13 11 51.7 46 -0.2 31.6
10:55 1022 30.18 851 25.13 10.7 51.3 47 -0.1 31.8
11:00 1022 30.18 851 25.13 11 51.8 46 -0.2 31.7
11:05 1022 30.18 851 25.13 11.9 53.4 42 -0.4 31.2
11:10 1022 30.18 851 25.13 12.5 54.6 44 0.7 33.3
11:15 1022 30.18 851 25.13 12.7 54.8 43 0.5 32.9
11:20 1022 30.18 851 25.13 12.4 54.3 43 0.3 32.6
11:25 1022 30.18 851 25.13 13 55.3 41 0.1 32.2
11:30 1022 30.18 851 25.13 14.2 57.5 35 -0.9 30.4
11:35 1022 30.18 851 25.13 13.9 57 35 -1.2 29.8
11:40 1022 30.18 851 25.13 13.2 55.8 37 -0.9 30.3
11:45 1022 30.18 851 25.13 12.6 54.8 36 -2.2 28.1
11:50 1022 30.18 851 25.13 13.2 55.8 32 -2.9 26.9
11:55 1022 30.18 851 25.13 13.9 57 32 -2.6 27.4
12:00 1022 30.18 851 25.13 13.6 56.5 31 -3.2 26.3
12:05 1021 30.15 851 25.13 13 55.4 35 -2.2 28
12:10 1021 30.15 851 25.13 13.1 55.6 33 -2.7 27.2
12:15 1021 30.15 851 25.13 13.4 56 30 -3.6 25.5
12:20 1021 30.15 851 25.13 12.9 55.2 34 -2.4 27.7
12:25 1021 30.15 851 25.13 13.5 56.3 35 -1.6 29.1
12:30 1021 30.15 851 25.13 14.2 57.6 33 -1.7 28.9
12:35 1021 30.15 851 25.13 14.7 58.4 30 -2.5 27.5
12:40 1022 30.18 851 25.13 15.1 59.2 29 -2.9 26.8
12:45 1022 30.18 851 25.13 15.2 59.3 31 -1.7 29
12:50 1022 30.18 851 25.13 15.4 59.8 30 -2.1 28.2
12:55 1022 30.18 851 25.13 15.4 59.6 29 -2.7 27.1
13:00 1022 30.18 851 25.13 15.2 59.3 26 -4.1 24.6
13:05 1022 30.18 851 25.13 14.8 58.6 29 -3 26.6
13:10 1022 30.18 851 25.13 14.5 58.1 30 -2.7 27.1
13:15 1022 30.18 851 25.13 14.8 58.6 27 -3.9 24.9
13:20 1022 30.18 851 25.13 14.9 58.9 26 -4.2 24.4
13:25 1022 30.18 851 25.13 15.5 59.8 29 -2.5 27.5
13:30 1022 30.18 851 25.13 16 60.8 26 -3.5 25.7
13:35 1022 30.18 851 25.13 15.9 60.6 27 -2.8 26.9
13:40 1022 30.18 851 25.13 16 60.7 27 -3.1 26.3
13:45 1022 30.18 851 25.13 16 60.9 26 -3.4 25.9
13:50 1022 30.18 851 25.13 15.9 60.5 25 -3.8 25.1
13:55 1022 30.18 851 25.13 15.8 60.4 26 -3.6 25.6
14:00 1022 30.18 851 25.13 15.7 60.2 28 -2.8 27
14:05 1022 30.18 851 25.13 16.2 61.2 25 -4 24.8
14:10 1021 30.15 851 25.13 16.6 61.8 24 -4.2 24.4
14:15 1021 30.15 851 25.13 16.6 61.9 25 -3.1 26.4
14:20 1021 30.15 851 25.13 16.7 62 27 -2.4 27.8
14:25 1021 30.15 851 25.13 16.6 61.9 25 -3.2 26.2
14:30 1021 30.15 851 25.13 16.7 62 24 -4 24.7
14:35 1022 30.18 851 25.13 16.6 61.9 25 -3.6 25.5
14:40 1022 30.18 851 25.13 16.8 62.3 26 -2.9 26.8
14:45 1022 30.18 851 25.13 16.8 62.3 25 -3.1 26.4
14:50 1022 30.18 851 25.13 16.7 62.1 24 -3.7 25.3
14:55 1022 30.18 851 25.13 16.8 62.2 25 -3.2 26.2
15:00 1022 30.18 851 25.13 16.6 62 26 -3 26.6
15:05 1021 30.15 851 25.13 16.8 62.2 25 -3.2 26.3
15:10 1021 30.15 851 25.13 16.7 62 25 -3.3 26
15:15 1021 30.15 851 25.13 16.9 62.3 24 -3.8 25.1
15:20 1021 30.15 851 25.13 17.2 62.9 24 -3.3 26.1
15:25 1021 30.15 851 25.13 16.8 62.2 24 -3.6 25.5
15:30 1021 30.15 850 25.1 17.3 63.1 24 -3.6 25.6
15:35 1021 30.15 850 25.1 17.3 63.1 23 -3.6 25.4
15:40 1021 30.15 850 25.1 17.2 63 24 -3.2 26.3
15:45 1021 30.15 850 25.1 17.2 62.9 25 -2.8 26.9
15:50 1021 30.15 850 25.1 17.2 62.9 24 -3.5 25.6
15:55 1021 30.15 850 25.1 17.3 63.2 24 -3.6 25.6
16:00 1021 30.15 850 25.1 17 62.6 24 -3.5 25.8
16:05 1021 30.15 850 25.1 16.8 62.2 25 -3.2 26.2
16:10 1021 30.15 850 25.1 16.9 62.4 25 -3.1 26.5
16:15 1021 30.15 850 25.1 17.3 63.1 24 -3.2 26.3
16:20 1021 30.15 850 25.1 17.7 63.8 24 -3.1 26.5
16:25 1021 30.15 850 25.1 17.6 63.7 24 -3.2 26.2
16:30 1021 30.15 850 25.1 17.4 63.3 25 -3 26.7
16:35 1021 30.15 850 25.1 17.5 63.4 24 -3 26.6
16:40 1021 30.15 850 25.1 17.6 63.6 24 -2.9 26.8
16:45 1021 30.15 850 25.1 17.9 64.1 24 -2.8 27
16:50 1021 30.15 850 25.1 17.9 64.2 24 -2.7 27.2
16:55 1021 30.15 850 25.1 17.7 63.8 24 -3.2 26.3
17:00 1021 30.15 850 25.1 17.5 63.4 25 -2.5 27.5
17:05 1020 30.12 850 25.1 18.1 64.5 25 -2.3 27.9
17:10 1020 30.12 850 25.1 17.7 63.8 25 -2.6 27.2
17:15 1020 30.12 850 25.1 17.5 63.5 24 -2.9 26.7
17:20 1020 30.12 850 25.1 17.5 63.5 26 -2.2 28
17:25 1020 30.12 850 25.1 17.6 63.7 25 -2.6 27.4
17:30 1020 30.12 850 25.1 18.1 64.6 25 -2.3 27.9
17:35 1020 30.12 850 25.1 17.8 64 25 -2.5 27.5
17:40 1020 30.12 849 25.07 17.4 63.3 25 -2.6 27.4
17:45 1020 30.12 849 25.07 17.3 63.2 26 -2.5 27.5
17:50 1020 30.12 850 25.1 17.2 63 27 -1.9 28.6
17:55 1020 30.12 850 25.1 17.3 63.1 26 -2.5 27.5
18:00 1020 30.12 849 25.07 17.4 63.3 25 -2.5 27.4
18:05 1020 30.12 850 25.1 17.5 63.6 26 -1.9 28.5
18:10 1020 30.12 849 25.07 17.9 64.1 25 -2.4 27.7
18:15 1020 30.12 849 25.07 17.4 63.3 26 -2.4 27.7
18:20 1020 30.12 849 25.07 17 62.6 26 -2.3 27.9
18:25 1020 30.12 849 25.07 16.7 62 26 -2.6 27.3
18:30 1020 30.12 849 25.07 16.2 61.2 27 -2.8 27
18:35 1020 30.12 849 25.07 16.2 61.1 28 -2.5 27.6
18:40 1020 30.12 849 25.07 16.2 61.2 28 -2.2 28.1
18:45 1020 30.12 849 25.07 16.4 61.5 28 -2.3 27.9
18:50 1020 30.12 849 25.07 16.6 61.8 26 -3 26.6
18:55 1020 30.12 849 25.07 16.3 61.4 27 -2.7 27.1
19:00 1020 30.12 849 25.07 16.4 61.6 26 -3 26.6
19:05 1020 30.12 849 25.07 16.5 61.6 27 -2.4 27.6
19:10 1020 30.12 849 25.07 16.3 61.3 26 -3.3 26.1
19:15 1020 30.12 849 25.07 15.9 60.6 27 -3.1 26.5
19:20 1020 30.12 849 25.07 16.1 61 28 -2.3 27.8
19:25 1020 30.12 849 25.07 16.1 61.1 28 -2.5 27.5
19:30 1020 30.12 849 25.07 16 60.8 27 -3 26.7
19:35 1020 30.12 849 25.07 15.9 60.6 27 -2.8 26.9
19:40 1020 30.12 849 25.07 16 60.9 27 -2.9 26.9
19:45 1020 30.12 849 25.07 16.3 61.4 26 -2.9 26.8
19:50 1020 30.12 849 25.07 16.3 61.4 27 -2.8 26.9
19:55 1020 30.12 849 25.07 16.3 61.4 27 -2.7 27.1
20:00 1020 30.12 849 25.07 16 60.7 27 -2.7 27.1
20:05 1020 30.12 849 25.07 15.7 60.2 28 -2.7 27.2
20:10 1020 30.12 849 25.07 15.4 59.7 28 -3.2 26.3
20:15 1020 30.12 849 25.07 15.2 59.4 28 -3.3 26.1
20:20 1020 30.12 849 25.07 15.2 59.3 29 -2.8 27
20:25 1020 30.12 849 25.07 15 59 29 -2.8 26.9
20:30 1020 30.12 849 25.07 15 59 29 -2.8 27
20:35 1020 30.12 849 25.07 15 58.9 30 -2.3 27.9
20:40 1020 30.12 849 25.07 14.9 58.8 30 -2.5 27.5
20:45 1020 30.12 849 25.07 14.9 58.7 29 -2.9 26.8
20:50 1020 30.12 849 25.07 14.9 58.9 27 -3.6 25.5
20:55 1020 30.12 849 25.07 14.8 58.7 32 -1.5 29.3
21:00 1020 30.12 849 25.07 14.4 58 34 -1.1 30
21:05 1020 30.12 849 25.07 14 57.2 39 0.3 32.6
21:10 1020 30.12 849 25.07 13.4 56.2 45 1.9 35.4
21:15 1020 30.12 849 25.07 12.7 54.9 49 2.4 36.2
21:20 1020 30.12 849 25.07 12.2 54 49 2 35.6
21:25 1020 30.12 849 25.07 12.2 53.9 51 2.3 36.1
21:30 1020 30.12 849 25.07 11.9 53.4 53 2.6 36.7
21:35 1020 30.12 849 25.07 11.5 52.7 54 2.7 36.8
21:40 1020 30.12 849 25.07 11.2 52.2 55 2.6 36.7
21:45 1020 30.12 850 25.1 11 51.7 56 2.6 36.6
21:50 1020 30.12 850 25.1 10.8 51.4 58 2.9 37.2
21:55 1020 30.12 850 25.1 10.4 50.7 58 2.5 36.5
22:00 1020 30.12 850 25.1 10.2 50.3 59 2.6 36.6
22:05 1020 30.12 850 25.1 10 50 59 2.5 36.5
22:10 1020 30.12 850 25.1 9.9 49.8 60 2.5 36.5
22:15 1020 30.12 850 25.1 9.7 49.5 60 2.4 36.3
22:20 1020 30.12 850 25.1 9.7 49.5 60 2.5 36.4
22:25 1020 30.12 850 25.1 9.6 49.2 58 1.7 35.1
22:30 1020 30.12 850 25.1 9.8 49.6 57 1.7 35.1
22:35 1020 30.12 850 25.1 9.9 49.8 57 1.8 35.3
22:40 1020 30.12 850 25.1 9.9 49.7 58 2 35.5
22:45 1020 30.12 850 25.1 9.6 49.3 58 1.8 35.3
22:50 1020 30.12 850 25.1 9.6 49.2 58 1.7 35.1
22:55 1020 30.12 850 25.1 9.6 49.3 56 1.4 34.5
23:00 1020 30.12 850 25.1 9.8 49.6 55 1.1 34
23:05 1020 30.12 849 25.07 10 50 54 1.2 34.2
23:10 1020 30.12 849 25.07 10.2 50.3 54 1.2 34.2
23:15 1020 30.12 849 25.07 10.1 50.1 56 1.6 34.9
23:20 1020 30.12 850 25.1 9.6 49.2 57 1.6 34.9
23:25 1020 30.12 850 25.1 9.4 48.8 58 1.5 34.6
23:30 1020 30.12 850 25.1 9.4 48.9 56 1.1 34
23:35 1020 30.12 850 25.1 9.5 49 58 1.6 34.9
23:40 1020 30.12 850 25.1 9.3 48.7 57 1.3 34.3
23:45 1020 30.12 850 25.1 9.4 48.9 54 0.7 33.3
23:50 1020 30.12 850 25.1 9.5 49.1 57 1.6 34.8
23:55 1020 30.12 850 25.1 9.2 48.6 58 1.4 34.4
24:00 1020 30.12 850 25.1 9.3 48.7 59 1.7 35